createdAt,value
2018-03-20T00:01:18.294Z,7.63
2018-03-20T00:03:44.031Z,8.57
2018-03-20T00:06:09.755Z,8.23
2018-03-20T00:08:35.491Z,7.93
2018-03-20T00:11:01.226Z,8.63
2018-03-20T00:13:26.934Z,7.77
2018-03-20T00:15:52.658Z,8.07
2018-03-20T00:18:18.374Z,7.50
2018-03-20T00:20:44.110Z,8.03
2018-03-20T00:23:09.840Z,7.93
2018-03-20T00:25:35.574Z,7.10
2018-03-20T00:28:01.303Z,7.43
2018-03-20T00:30:27.036Z,6.90
2018-03-20T00:32:52.774Z,7.23
2018-03-20T00:35:18.499Z,7.03
2018-03-20T00:37:44.238Z,6.67
2018-03-20T00:40:09.974Z,6.30
2018-03-20T00:42:35.702Z,6.27
2018-03-20T00:45:01.451Z,7.57
2018-03-20T00:47:27.189Z,7.23
2018-03-20T00:49:52.919Z,6.97
2018-03-20T00:52:18.658Z,7.67
2018-03-20T00:54:44.392Z,7.63
2018-03-20T00:57:10.142Z,6.87
2018-03-20T00:59:35.858Z,7.37
2018-03-20T01:02:01.601Z,7.13
2018-03-20T01:04:27.330Z,7.73
2018-03-20T01:06:53.067Z,8.30
2018-03-20T01:09:18.794Z,6.77
2018-03-20T01:11:44.530Z,6.30
2018-03-20T01:14:10.262Z,7.07
2018-03-20T01:16:36.017Z,8.83
2018-03-20T01:19:01.751Z,7.17
2018-03-20T01:21:27.502Z,7.40
2018-03-20T01:23:53.242Z,6.87
2018-03-20T01:26:18.967Z,7.33
2018-03-20T01:28:44.698Z,7.23
2018-03-20T01:31:10.432Z,6.57
2018-03-20T01:33:36.182Z,7.17
2018-03-20T01:36:01.910Z,7.40
2018-03-20T01:38:27.642Z,7.07
2018-03-20T01:40:53.374Z,7.67
2018-03-20T01:43:19.115Z,6.40
2018-03-20T01:45:44.841Z,6.80
2018-03-20T01:48:10.587Z,6.47
2018-03-20T01:50:36.319Z,6.03
2018-03-20T01:53:14.543Z,7.40
2018-03-20T01:55:40.254Z,6.70
2018-03-20T01:58:05.992Z,6.13
2018-03-20T02:00:31.714Z,6.00
2018-03-20T02:02:57.450Z,6.37
2018-03-20T02:05:23.170Z,5.83
2018-03-20T02:07:48.903Z,6.00
2018-03-20T02:10:14.643Z,6.30
2018-03-20T02:12:40.383Z,6.60
2018-03-20T02:15:06.115Z,6.23
2018-03-20T02:17:31.849Z,6.03
2018-03-20T02:19:57.594Z,4.93
2018-03-20T02:22:23.324Z,6.20
2018-03-20T02:24:49.060Z,6.77
2018-03-20T02:27:14.794Z,6.67
2018-03-20T02:29:40.530Z,5.73
2018-03-20T02:32:06.254Z,6.47
2018-03-20T02:34:31.990Z,5.50
2018-03-20T02:36:57.731Z,5.67
2018-03-20T02:39:23.465Z,6.03
2018-03-20T02:41:49.183Z,6.33
2018-03-20T02:44:14.928Z,6.97
2018-03-20T02:46:40.707Z,6.97
2018-03-20T02:49:06.441Z,5.80
2018-03-20T02:51:32.173Z,6.70
2018-03-20T02:53:57.904Z,7.70
2018-03-20T02:56:23.647Z,7.33
2018-03-20T02:58:49.366Z,7.10
2018-03-20T03:01:15.108Z,7.37
2018-03-20T03:03:40.856Z,8.00
2018-03-20T03:06:06.603Z,7.03
2018-03-20T03:08:32.339Z,6.37
2018-03-20T03:10:58.084Z,5.37
2018-03-20T03:13:23.843Z,5.90
2018-03-20T03:15:49.586Z,6.87
2018-03-20T03:18:15.333Z,5.20
2018-03-20T03:20:41.072Z,6.30
2018-03-20T03:23:06.806Z,5.90
2018-03-20T03:25:32.546Z,4.97
2018-03-20T03:27:58.263Z,5.50
2018-03-20T03:30:23.985Z,5.63
2018-03-20T03:32:49.715Z,6.03
2018-03-20T03:35:15.458Z,5.87
2018-03-20T03:37:41.174Z,5.70
2018-03-20T03:40:06.914Z,5.83
2018-03-20T03:42:32.630Z,5.17
2018-03-20T03:44:58.350Z,5.60
2018-03-20T03:47:24.102Z,6.07
2018-03-20T03:49:49.821Z,6.00
2018-03-20T03:52:15.561Z,5.90
2018-03-20T03:54:41.295Z,6.27
2018-03-20T03:57:07.029Z,5.97
2018-03-20T03:59:32.754Z,6.77
2018-03-20T04:01:58.490Z,6.43
2018-03-20T04:04:24.219Z,6.60
2018-03-20T04:06:49.955Z,6.67
2018-03-20T04:09:15.671Z,6.63
2018-03-20T04:11:41.405Z,6.60
2018-03-20T04:14:07.122Z,5.97
2018-03-20T04:16:32.857Z,5.93
2018-03-20T04:18:58.581Z,6.10
2018-03-20T04:21:24.326Z,6.07
2018-03-20T04:23:50.066Z,5.90
2018-03-20T04:26:15.810Z,6.83
2018-03-20T04:28:41.538Z,6.47
2018-03-20T04:31:07.262Z,6.27
2018-03-20T04:33:32.986Z,7.07
2018-03-20T04:35:58.710Z,6.43
2018-03-20T04:38:24.445Z,6.07
2018-03-20T04:40:50.169Z,5.60
2018-03-20T04:43:15.907Z,5.63
2018-03-20T04:45:41.626Z,5.10
2018-03-20T04:48:07.366Z,6.27
2018-03-20T04:50:33.085Z,5.23
2018-03-20T04:52:58.815Z,6.07
2018-03-20T04:55:24.538Z,6.23
2018-03-20T04:57:50.262Z,6.37
2018-03-20T05:00:16.008Z,5.87
2018-03-20T05:02:41.743Z,5.90
2018-03-20T05:05:07.463Z,6.13
2018-03-20T05:07:33.210Z,5.73
2018-03-20T05:09:58.934Z,5.20
2018-03-20T05:12:24.664Z,4.90
2018-03-20T05:14:50.403Z,5.70
2018-03-20T05:17:16.162Z,5.10
2018-03-20T05:19:48.032Z,4.87
2018-03-20T05:25:12.317Z,4.12
2018-03-20T05:27:38.042Z,4.40
2018-03-20T05:30:03.774Z,3.97
2018-03-20T05:32:29.508Z,4.10
2018-03-20T05:34:55.242Z,4.07
2018-03-20T05:37:20.965Z,4.50
2018-03-20T05:39:46.694Z,3.40
2018-03-20T05:42:12.414Z,3.83
2018-03-20T05:44:38.171Z,3.50
2018-03-20T05:50:14.794Z,2.92
2018-03-20T05:52:40.509Z,2.90
2018-03-20T05:55:06.254Z,3.20
2018-03-20T05:57:31.961Z,3.23
2018-03-20T05:59:57.694Z,3.20
2018-03-20T06:02:23.409Z,3.10
2018-03-20T06:04:49.135Z,2.97
2018-03-20T06:07:14.850Z,2.60
2018-03-20T06:09:40.573Z,2.83
2018-03-20T06:12:06.285Z,3.47
2018-03-20T06:14:32.015Z,3.17
2018-03-20T06:16:57.745Z,2.67
2018-03-20T06:19:23.466Z,2.53
2018-03-20T06:21:49.183Z,2.90
2018-03-20T06:24:14.901Z,2.80
2018-03-20T06:26:40.622Z,2.70
2018-03-20T06:29:06.338Z,2.70
2018-03-20T06:31:32.059Z,2.70
2018-03-20T06:33:57.766Z,2.90
2018-03-20T06:36:23.481Z,2.80
2018-03-20T06:38:49.231Z,2.57
2018-03-20T06:41:14.918Z,2.40
2018-03-20T06:43:40.638Z,2.30
2018-03-20T06:46:06.358Z,2.20
2018-03-20T06:48:32.099Z,2.50
2018-03-20T06:50:57.866Z,2.33
2018-03-20T06:53:23.562Z,2.40
2018-03-20T06:55:49.302Z,2.80
2018-03-20T06:58:15.026Z,3.10
2018-03-20T07:00:40.753Z,2.20
2018-03-20T07:03:06.478Z,2.40
2018-03-20T07:05:32.211Z,2.40
2018-03-20T07:07:57.959Z,2.33
2018-03-20T07:10:23.698Z,2.50
2018-03-20T07:12:49.430Z,2.30
2018-03-20T07:15:15.162Z,2.30
2018-03-20T07:17:40.905Z,2.50
2018-03-20T07:20:06.646Z,2.00
2018-03-20T07:22:32.388Z,2.33
2018-03-20T07:24:58.102Z,2.23
2018-03-20T07:27:23.842Z,2.10
2018-03-20T07:29:49.569Z,2.57
2018-03-20T07:32:15.309Z,2.30
2018-03-20T07:34:41.040Z,2.60
2018-03-20T07:37:06.777Z,2.40
2018-03-20T07:39:32.498Z,2.43
2018-03-20T07:41:58.231Z,2.33
2018-03-20T07:44:23.949Z,2.27
2018-03-20T07:46:49.678Z,2.30
2018-03-20T07:49:15.704Z,2.40
2018-03-20T07:51:41.442Z,2.67
2018-03-20T07:54:07.152Z,2.33
2018-03-20T07:56:32.857Z,2.23
2018-03-20T07:58:58.574Z,2.10
2018-03-20T08:01:24.293Z,2.07
2018-03-20T08:03:50.262Z,2.60
2018-03-20T08:06:15.994Z,2.00
2018-03-20T08:08:41.710Z,1.90
2018-03-20T08:11:07.430Z,2.40
2018-03-20T08:13:33.186Z,2.43
2018-03-20T08:15:58.905Z,2.50
2018-03-20T08:18:25.947Z,2.50
2018-03-20T08:20:51.676Z,2.08
2018-03-20T08:23:17.828Z,2.10
2018-03-20T08:25:43.577Z,2.22
2018-03-20T08:28:09.298Z,2.20
2018-03-20T08:30:35.017Z,1.60
2018-03-20T08:33:00.729Z,2.57
2018-03-20T08:35:26.446Z,2.23
2018-03-20T08:37:52.162Z,2.00
2018-03-20T08:40:17.869Z,2.10
2018-03-20T08:42:43.586Z,1.77
2018-03-20T08:45:09.301Z,2.20
2018-03-20T08:47:35.029Z,2.23
2018-03-20T08:50:00.816Z,2.90
2018-03-20T08:52:26.506Z,2.03
2018-03-20T08:54:52.234Z,2.40
2018-03-20T08:57:17.950Z,2.10
2018-03-20T08:59:43.698Z,2.60
2018-03-20T09:02:09.426Z,2.40
2018-03-20T09:04:35.152Z,1.97
2018-03-20T09:07:00.875Z,2.63
2018-03-20T09:09:26.606Z,2.47
2018-03-20T09:11:52.330Z,1.70
2018-03-20T09:14:18.075Z,2.40
2018-03-20T09:16:43.827Z,2.97
2018-03-20T09:19:09.569Z,2.37
2018-03-20T09:21:35.303Z,2.20
2018-03-20T09:24:01.045Z,2.30
2018-03-20T09:26:26.786Z,2.07
2018-03-20T09:28:52.521Z,1.80
2018-03-20T09:31:18.242Z,2.10
2018-03-20T09:33:43.966Z,1.93
2018-03-20T09:36:09.697Z,2.00
2018-03-20T09:38:35.438Z,2.17
2018-03-20T09:41:01.213Z,2.13
2018-03-20T09:43:26.930Z,2.50
2018-03-20T09:45:52.633Z,1.80
2018-03-20T09:48:18.369Z,1.90
2018-03-20T09:50:44.105Z,2.20
2018-03-20T09:53:09.812Z,2.13
2018-03-20T09:55:35.523Z,1.90
2018-03-20T09:58:01.242Z,2.27
2018-03-20T10:00:26.977Z,2.03
2018-03-20T10:02:52.694Z,2.10
2018-03-20T10:05:18.414Z,2.23
2018-03-20T10:07:44.122Z,2.43
2018-03-20T10:10:09.845Z,1.83
2018-03-20T10:12:35.565Z,1.77
2018-03-20T10:15:01.299Z,2.07
2018-03-20T10:17:27.009Z,2.17
2018-03-20T10:19:52.730Z,2.20
2018-03-20T10:22:18.455Z,1.80
2018-03-20T10:24:44.178Z,2.10
2018-03-20T10:27:09.896Z,2.13
2018-03-20T10:29:35.616Z,2.63
2018-03-20T10:32:01.352Z,2.40
2018-03-20T10:34:27.070Z,2.50
2018-03-20T10:36:52.793Z,2.20
2018-03-20T10:39:18.978Z,3.40
2018-03-20T10:41:45.603Z,2.40
2018-03-20T10:44:11.852Z,2.30
2018-03-20T10:46:38.059Z,2.10
2018-03-20T10:49:03.975Z,1.65
2018-03-20T10:51:29.675Z,2.03
2018-03-20T10:53:55.409Z,2.17
2018-03-20T10:56:21.143Z,1.80
2018-03-20T10:58:46.869Z,1.87
2018-03-20T11:01:18.698Z,2.00
2018-03-20T11:03:44.443Z,2.10
2018-03-20T11:06:10.178Z,2.30
2018-03-20T11:08:35.914Z,1.73
2018-03-20T11:11:01.650Z,1.60
2018-03-20T11:13:27.391Z,1.50
2018-03-20T11:15:53.125Z,2.00
2018-03-20T11:18:18.866Z,4.73
2018-03-20T11:20:44.603Z,1.83
2018-03-20T11:23:10.334Z,1.40
2018-03-20T11:25:36.058Z,1.60
2018-03-20T11:28:01.802Z,1.97
2018-03-20T11:30:27.521Z,1.50
2018-03-20T11:32:53.246Z,1.90
2018-03-20T11:35:18.978Z,1.37
2018-03-20T11:37:44.711Z,1.80
2018-03-20T11:40:10.429Z,1.60
2018-03-20T11:42:36.153Z,2.17
2018-03-20T11:45:01.874Z,1.50
2018-03-20T11:47:27.661Z,1.63
2018-03-20T11:49:53.342Z,1.40
2018-03-20T11:52:19.078Z,1.80
2018-03-20T11:54:44.790Z,1.77
2018-03-20T11:57:10.524Z,1.90
2018-03-20T11:59:36.242Z,2.30
2018-03-20T12:02:01.990Z,1.80
2018-03-20T12:04:27.710Z,1.53
2018-03-20T12:06:53.429Z,1.40
2018-03-20T12:09:31.606Z,1.67
2018-03-20T12:11:57.338Z,1.55
2018-03-20T12:14:23.071Z,1.37
2018-03-20T12:16:48.810Z,1.50
2018-03-20T12:19:14.538Z,1.50
2018-03-20T12:21:40.265Z,1.30
2018-03-20T12:24:05.990Z,1.90
2018-03-20T12:26:31.725Z,1.80
2018-03-20T12:28:57.449Z,1.60
2018-03-20T12:31:23.169Z,1.40
2018-03-20T12:33:48.902Z,1.53
2018-03-20T12:36:14.629Z,1.80
2018-03-20T12:38:40.374Z,1.60
2018-03-20T12:41:06.102Z,2.30
2018-03-20T12:43:31.843Z,1.97
2018-03-20T12:45:57.574Z,1.90
2018-03-20T12:48:23.310Z,1.63
2018-03-20T12:50:49.018Z,2.10
2018-03-20T12:53:14.742Z,1.70
2018-03-20T12:55:40.453Z,1.43
2018-03-20T12:58:06.189Z,1.43
2018-03-20T13:00:31.902Z,1.90
2018-03-20T13:02:57.617Z,1.80
2018-03-20T13:05:23.333Z,2.23
2018-03-20T13:07:49.105Z,1.80
2018-03-20T13:10:14.829Z,2.47
2018-03-20T13:12:40.546Z,1.97
2018-03-20T13:15:06.263Z,1.83
2018-03-20T13:17:31.976Z,1.80
2018-03-20T13:19:57.703Z,1.67
2018-03-20T13:22:23.418Z,1.60
2018-03-20T13:24:49.143Z,1.60
2018-03-20T13:27:14.861Z,1.80
2018-03-20T13:29:40.581Z,2.47
2018-03-20T13:32:06.298Z,1.83
2018-03-20T13:34:32.035Z,1.90
2018-03-20T13:36:57.761Z,1.83
2018-03-20T13:39:23.477Z,2.10
2018-03-20T13:41:49.197Z,2.20
2018-03-20T13:44:14.913Z,1.70
2018-03-20T13:46:40.633Z,2.33
2018-03-20T13:49:06.377Z,1.80
2018-03-20T13:51:32.094Z,1.60
2018-03-20T13:53:57.810Z,1.63
2018-03-20T13:56:23.533Z,1.83
2018-03-20T13:58:49.242Z,1.60
2018-03-20T14:01:16.726Z,1.80
2018-03-20T14:03:42.498Z,1.98
2018-03-20T14:06:08.248Z,1.77
2018-03-20T14:08:34.006Z,1.80
2018-03-20T14:10:59.725Z,2.13
2018-03-20T14:13:25.437Z,1.87
2018-03-20T14:15:51.224Z,2.13
2018-03-20T14:18:16.946Z,2.10
2018-03-20T14:20:42.695Z,1.73
2018-03-20T14:23:08.388Z,1.77
2018-03-20T14:25:34.098Z,1.60
2018-03-20T14:27:59.829Z,1.60
2018-03-20T14:30:25.546Z,2.00
2018-03-20T14:32:51.268Z,2.13
2018-03-20T14:35:16.978Z,1.80
2018-03-20T14:37:42.703Z,2.27
2018-03-20T14:40:08.421Z,2.23
2018-03-20T14:42:34.138Z,1.80
2018-03-20T14:44:59.876Z,1.60
2018-03-20T14:47:25.634Z,1.83
2018-03-20T14:49:51.345Z,1.93
2018-03-20T14:52:17.073Z,1.83
2018-03-20T14:54:42.798Z,2.00
2018-03-20T14:57:08.541Z,2.40
2018-03-20T14:59:34.254Z,1.60
2018-03-20T15:02:00.010Z,1.70
2018-03-20T15:04:25.726Z,1.80
2018-03-20T15:06:51.458Z,1.77
2018-03-20T15:09:17.184Z,2.10
2018-03-20T15:11:42.901Z,2.00
2018-03-20T15:14:08.641Z,1.70
2018-03-20T15:16:34.406Z,1.83
2018-03-20T15:19:00.153Z,1.93
2018-03-20T15:21:25.873Z,1.90
2018-03-20T15:23:51.660Z,1.77
2018-03-20T15:26:17.378Z,1.73
2018-03-20T15:28:43.159Z,1.97
2018-03-20T15:31:08.862Z,1.67
2018-03-20T15:33:34.591Z,1.80
2018-03-20T15:36:00.368Z,1.67
2018-03-20T15:38:26.106Z,1.60
2018-03-20T15:40:51.825Z,1.60
2018-03-20T15:43:17.569Z,1.73
2018-03-20T15:45:43.291Z,2.17
2018-03-20T15:48:09.030Z,1.70
2018-03-20T15:50:34.761Z,1.47
2018-03-20T15:53:00.499Z,1.70
2018-03-20T15:55:26.229Z,1.77
2018-03-20T15:57:51.957Z,1.53
2018-03-20T16:00:17.682Z,2.57
2018-03-20T16:02:43.409Z,1.70
2018-03-20T16:05:09.149Z,1.50
2018-03-20T16:07:34.874Z,1.40
2018-03-20T16:10:00.602Z,2.27
2018-03-20T16:12:26.317Z,2.20
2018-03-20T16:14:52.050Z,2.30
2018-03-20T16:17:17.787Z,2.10
2018-03-20T16:19:43.523Z,1.50
2018-03-20T16:22:09.267Z,1.37
2018-03-20T16:24:34.998Z,1.60
2018-03-20T16:27:00.727Z,1.70
2018-03-20T16:29:26.522Z,2.03
2018-03-20T16:31:52.292Z,1.50
2018-03-20T16:34:18.058Z,1.90
2018-03-20T16:36:43.794Z,1.70
2018-03-20T16:39:09.501Z,1.63
2018-03-20T16:41:35.234Z,1.67
2018-03-20T16:44:00.965Z,2.03
2018-03-20T16:46:26.741Z,1.87
2018-03-20T16:48:52.487Z,2.23
2018-03-20T16:51:18.214Z,1.70
2018-03-20T16:53:43.950Z,2.13
2018-03-20T16:56:09.693Z,1.80
2018-03-20T16:58:35.409Z,2.40
2018-03-20T17:01:01.134Z,3.50
2018-03-20T17:03:26.861Z,2.00
2018-03-20T17:05:52.595Z,2.10
2018-03-20T17:08:18.322Z,1.90
2018-03-20T17:10:44.065Z,2.00
2018-03-20T17:13:09.795Z,2.20
2018-03-20T17:15:35.521Z,2.47
2018-03-20T17:18:01.238Z,2.17
2018-03-20T17:20:26.965Z,2.23
2018-03-20T17:22:52.689Z,8.63
2018-03-20T17:25:18.426Z,14.20
2018-03-20T17:27:44.143Z,7.20
2018-03-20T17:30:09.875Z,15.87
2018-03-20T17:32:35.594Z,6.47
2018-03-20T17:35:01.301Z,8.90
2018-03-20T17:37:27.050Z,4.40
2018-03-20T17:39:52.822Z,7.27
2018-03-20T17:42:18.499Z,10.57
2018-03-20T17:44:44.221Z,6.57
2018-03-20T17:47:09.988Z,4.40
2018-03-20T17:49:35.737Z,3.23
2018-03-20T17:52:01.493Z,2.83
2018-03-20T17:54:27.214Z,3.63
2018-03-20T17:56:52.942Z,3.13
2018-03-20T17:59:18.694Z,3.60
2018-03-20T18:01:44.442Z,3.77
2018-03-20T18:04:10.178Z,3.70
2018-03-20T18:06:35.922Z,3.00
2018-03-20T18:09:01.754Z,3.63
2018-03-20T18:11:27.469Z,2.70
2018-03-20T18:13:53.216Z,2.70
2018-03-20T18:16:18.941Z,3.13
2018-03-20T18:18:44.669Z,3.37
2018-03-20T18:21:10.387Z,4.63
2018-03-20T18:23:36.121Z,9.13
2018-03-20T18:26:01.837Z,4.60
2018-03-20T18:28:27.585Z,4.07
2018-03-20T18:30:53.319Z,5.47
2018-03-20T18:33:19.045Z,5.43
2018-03-20T18:35:44.771Z,5.33
2018-03-20T18:38:10.502Z,5.10
2018-03-20T18:40:36.231Z,5.33
2018-03-20T18:43:02.006Z,5.50
2018-03-20T18:45:27.741Z,5.27
2018-03-20T18:47:53.463Z,5.20
2018-03-20T18:50:19.195Z,5.23
2018-03-20T18:52:44.918Z,6.00
2018-03-20T18:55:10.653Z,6.30
2018-03-20T18:57:36.389Z,5.73
2018-03-20T19:00:02.113Z,5.57
2018-03-20T19:02:27.818Z,5.80
2018-03-20T19:04:53.534Z,6.03
2018-03-20T19:07:19.259Z,6.30
2018-03-20T19:09:44.995Z,8.07
2018-03-20T19:12:10.714Z,7.97
2018-03-20T19:14:36.513Z,9.47
2018-03-20T19:17:02.209Z,10.33
2018-03-20T19:19:27.941Z,12.93
2018-03-20T19:21:53.668Z,12.93
2018-03-20T19:24:19.398Z,13.63
2018-03-20T19:26:45.102Z,14.97
2018-03-20T19:29:10.817Z,12.50
2018-03-20T19:31:36.546Z,8.53
2018-03-20T19:34:02.262Z,5.97
2018-03-20T19:36:27.981Z,4.90
2018-03-20T19:38:53.690Z,6.10
2018-03-20T19:41:19.433Z,5.60
2018-03-20T19:43:45.142Z,4.80
2018-03-20T19:46:10.868Z,4.70
2018-03-20T19:48:36.601Z,4.33
2018-03-20T19:51:02.360Z,4.30
2018-03-20T19:53:28.086Z,4.40
2018-03-20T19:55:53.821Z,4.27
2018-03-20T19:58:19.562Z,4.00
2018-03-20T20:00:45.289Z,4.10
2018-03-20T20:03:11.019Z,5.17
2018-03-20T20:05:36.757Z,5.20
2018-03-20T20:08:02.477Z,5.60
2018-03-20T20:10:28.238Z,5.80
2018-03-20T20:12:53.937Z,7.03
2018-03-20T20:15:19.656Z,7.13
2018-03-20T20:17:45.438Z,9.07
2018-03-20T20:20:11.206Z,8.87
2018-03-20T20:22:36.946Z,8.63
2018-03-20T20:25:02.686Z,7.80
2018-03-20T20:27:28.432Z,8.33
2018-03-20T20:29:54.162Z,8.90
2018-03-20T20:32:19.898Z,8.97
2018-03-20T20:34:45.621Z,9.57
2018-03-20T20:37:11.365Z,9.27
2018-03-20T20:39:37.098Z,10.10
2018-03-20T20:42:02.838Z,9.13
2018-03-20T20:44:28.558Z,9.53
2018-03-20T20:46:54.295Z,9.53
2018-03-20T20:49:20.018Z,9.30
2018-03-20T20:51:45.757Z,10.07
2018-03-20T20:54:11.467Z,9.83
2018-03-20T20:56:37.203Z,10.83
2018-03-20T20:59:02.938Z,11.87
2018-03-20T21:01:28.654Z,10.47
2018-03-20T21:03:54.369Z,10.70
2018-03-20T21:06:20.098Z,9.90
2018-03-20T21:08:45.814Z,10.60
2018-03-20T21:11:11.537Z,12.87
2018-03-20T21:13:37.249Z,11.60
2018-03-20T21:16:02.973Z,10.77
2018-03-20T21:18:28.695Z,10.30
2018-03-20T21:20:54.422Z,9.27
2018-03-20T21:23:20.142Z,8.90
2018-03-20T21:25:45.846Z,8.87
2018-03-20T21:28:11.652Z,9.60
2018-03-20T21:30:37.375Z,8.30
2018-03-20T21:33:03.098Z,8.67
2018-03-20T21:35:28.813Z,9.40
2018-03-20T21:37:54.537Z,8.77
2018-03-20T21:40:20.254Z,9.00
2018-03-20T21:42:45.978Z,9.57
2018-03-20T21:45:11.697Z,9.20
2018-03-20T21:47:37.440Z,9.17
2018-03-20T21:50:03.169Z,9.97
2018-03-20T21:52:28.896Z,10.40
2018-03-20T21:54:54.637Z,9.87
2018-03-20T21:57:20.374Z,9.50
2018-03-20T21:59:46.104Z,10.10
2018-03-20T22:02:11.834Z,10.00
2018-03-20T22:04:37.561Z,10.70
2018-03-20T22:07:03.301Z,9.77
2018-03-20T22:09:29.030Z,10.10
2018-03-20T22:11:54.757Z,10.60
2018-03-20T22:14:20.488Z,10.50
2018-03-20T22:16:46.220Z,11.57
2018-03-20T22:19:11.943Z,10.23
2018-03-20T22:21:37.670Z,10.37
2018-03-20T22:24:03.419Z,10.40
2018-03-20T22:26:29.145Z,10.53
2018-03-20T22:28:54.875Z,11.27
2018-03-20T22:31:20.594Z,12.07
2018-03-20T22:33:46.321Z,13.07
2018-03-20T22:36:12.038Z,13.17
2018-03-20T22:38:37.777Z,11.60
2018-03-20T22:41:03.522Z,11.77
2018-03-20T22:43:29.270Z,12.47
2018-03-20T22:45:55.006Z,13.50
2018-03-20T22:48:20.758Z,12.93
2018-03-20T22:50:46.481Z,13.60
2018-03-20T22:53:12.214Z,13.33
2018-03-20T22:55:37.945Z,13.93
2018-03-20T22:58:03.668Z,13.80
2018-03-20T23:00:31.287Z,13.87
2018-03-20T23:02:57.017Z,13.13
2018-03-20T23:05:22.741Z,12.77
2018-03-20T23:07:48.475Z,13.80
2018-03-20T23:10:14.218Z,13.57
2018-03-20T23:12:39.942Z,13.37
2018-03-20T23:15:05.677Z,13.17
2018-03-20T23:17:31.415Z,13.60
2018-03-20T23:19:57.150Z,13.30
2018-03-20T23:22:22.880Z,12.67
2018-03-20T23:24:48.629Z,13.10
2018-03-20T23:27:14.341Z,12.37
2018-03-20T23:29:40.080Z,13.20
2018-03-20T23:32:05.806Z,13.43
2018-03-20T23:34:31.560Z,13.80
2018-03-20T23:36:57.291Z,14.00
2018-03-20T23:39:23.025Z,13.20
2018-03-20T23:41:48.756Z,13.70
2018-03-20T23:44:14.481Z,14.60
2018-03-20T23:46:40.198Z,13.97
2018-03-20T23:49:12.288Z,15.27
2018-03-20T23:51:38.022Z,14.95
2018-03-20T23:54:03.855Z,14.70
2018-03-20T23:56:29.585Z,14.83
2018-03-20T23:58:55.307Z,15.70
